sensor_id;sensor_type;location;lat;lon;timestamp;P1;durP1;ratioP1;P2;durP2;ratioP2
68870;SDS011;55906;52.278;6.808;2022-09-09T00:00:38;6.07;;;3.13;;
68870;SDS011;55906;52.278;6.808;2022-09-09T00:03:08;6.05;;;3.42;;
68870;SDS011;55906;52.278;6.808;2022-09-09T00:05:44;6.80;;;3.10;;
68870;SDS011;55906;52.278;6.808;2022-09-09T00:08:21;6.20;;;3.50;;
68870;SDS011;55906;52.278;6.808;2022-09-09T00:10:56;5.85;;;3.10;;
68870;SDS011;55906;52.278;6.808;2022-09-09T00:13:28;6.73;;;2.97;;
68870;SDS011;55906;52.278;6.808;2022-09-09T00:16:01;5.57;;;3.40;;
68870;SDS011;55906;52.278;6.808;2022-09-09T00:18:35;5.28;;;3.20;;
68870;SDS011;55906;52.278;6.808;2022-09-09T00:21:14;5.60;;;2.90;;
68870;SDS011;55906;52.278;6.808;2022-09-09T00:23:43;5.82;;;3.17;;
68870;SDS011;55906;52.278;6.808;2022-09-09T00:26:14;5.60;;;3.40;;
68870;SDS011;55906;52.278;6.808;2022-09-09T00:28:47;7.03;;;3.38;;
68870;SDS011;55906;52.278;6.808;2022-09-09T00:31:20;6.20;;;3.10;;
68870;SDS011;55906;52.278;6.808;2022-09-09T00:33:51;5.35;;;3.03;;
68870;SDS011;55906;52.278;6.808;2022-09-09T00:36:23;4.63;;;3.20;;
68870;SDS011;55906;52.278;6.808;2022-09-09T00:38:55;4.43;;;3.13;;
68870;SDS011;55906;52.278;6.808;2022-09-09T00:41:26;7.65;;;3.90;;
68870;SDS011;55906;52.278;6.808;2022-09-09T00:44:09;5.65;;;3.42;;
68870;SDS011;55906;52.278;6.808;2022-09-09T00:46:53;6.22;;;3.63;;
68870;SDS011;55906;52.278;6.808;2022-09-09T00:49:29;6.93;;;4.00;;
68870;SDS011;55906;52.278;6.808;2022-09-09T00:52:08;5.97;;;3.77;;
68870;SDS011;55906;52.278;6.808;2022-09-09T00:54:45;5.28;;;4.05;;
68870;SDS011;55906;52.278;6.808;2022-09-09T00:57:23;6.15;;;3.47;;
68870;SDS011;55906;52.278;6.808;2022-09-09T00:59:55;6.03;;;3.97;;
68870;SDS011;55906;52.278;6.808;2022-09-09T01:02:28;5.00;;;3.40;;
68870;SDS011;55906;52.278;6.808;2022-09-09T01:05:04;7.90;;;4.00;;
68870;SDS011;55906;52.278;6.808;2022-09-09T01:07:36;5.88;;;3.67;;
68870;SDS011;55906;52.278;6.808;2022-09-09T01:10:03;7.65;;;4.15;;
68870;SDS011;55906;52.278;6.808;2022-09-09T01:12:38;4.57;;;3.30;;
68870;SDS011;55906;52.278;6.808;2022-09-09T01:15:09;7.35;;;4.10;;
68870;SDS011;55906;52.278;6.808;2022-09-09T01:17:41;6.27;;;3.70;;
68870;SDS011;55906;52.278;6.808;2022-09-09T01:20:16;5.20;;;3.13;;
68870;SDS011;55906;52.278;6.808;2022-09-09T01:22:52;5.35;;;3.42;;
68870;SDS011;55906;52.278;6.808;2022-09-09T01:28:40;6.35;;;4.22;;
68870;SDS011;55906;52.278;6.808;2022-09-09T01:31:11;6.40;;;3.87;;
68870;SDS011;55906;52.278;6.808;2022-09-09T01:33:43;7.07;;;3.92;;
68870;SDS011;55906;52.278;6.808;2022-09-09T01:36:10;6.03;;;4.22;;
68870;SDS011;55906;52.278;6.808;2022-09-09T01:38:45;6.22;;;4.03;;
68870;SDS011;55906;52.278;6.808;2022-09-09T01:41:13;5.88;;;4.25;;
68870;SDS011;55906;52.278;6.808;2022-09-09T01:43:39;5.80;;;4.50;;
68870;SDS011;55906;52.278;6.808;2022-09-09T01:46:06;6.43;;;4.15;;
68870;SDS011;55906;52.278;6.808;2022-09-09T01:48:33;9.20;;;4.05;;
68870;SDS011;55906;52.278;6.808;2022-09-09T01:51:00;6.75;;;3.75;;
68870;SDS011;55906;52.278;6.808;2022-09-09T01:53:26;5.10;;;3.63;;
68870;SDS011;55906;52.278;6.808;2022-09-09T01:55:58;5.13;;;3.67;;
68870;SDS011;55906;52.278;6.808;2022-09-09T01:58:36;5.47;;;3.20;;
68870;SDS011;55906;52.278;6.808;2022-09-09T02:01:15;6.78;;;4.45;;
68870;SDS011;55906;52.278;6.808;2022-09-09T02:03:50;5.93;;;4.28;;
68870;SDS011;55906;52.278;6.808;2022-09-09T02:06:23;6.35;;;3.95;;
68870;SDS011;55906;52.278;6.808;2022-09-09T02:08:55;5.70;;;4.17;;
68870;SDS011;55906;52.278;6.808;2022-09-09T02:11:25;5.53;;;4.25;;
68870;SDS011;55906;52.278;6.808;2022-09-09T02:13:56;5.50;;;3.90;;
68870;SDS011;55906;52.278;6.808;2022-09-09T02:16:28;6.15;;;4.00;;
68870;SDS011;55906;52.278;6.808;2022-09-09T02:19:01;7.20;;;4.10;;
68870;SDS011;55906;52.278;6.808;2022-09-09T02:21:32;5.93;;;4.10;;
68870;SDS011;55906;52.278;6.808;2022-09-09T02:24:00;7.05;;;4.22;;
68870;SDS011;55906;52.278;6.808;2022-09-09T02:26:30;5.70;;;4.13;;
68870;SDS011;55906;52.278;6.808;2022-09-09T02:29:01;7.43;;;4.32;;
68870;SDS011;55906;52.278;6.808;2022-09-09T02:31:29;7.07;;;3.95;;
68870;SDS011;55906;52.278;6.808;2022-09-09T02:33:58;5.30;;;3.70;;
68870;SDS011;55906;52.278;6.808;2022-09-09T02:36:29;5.85;;;3.72;;
68870;SDS011;55906;52.278;6.808;2022-09-09T02:38:58;5.72;;;4.18;;
68870;SDS011;55906;52.278;6.808;2022-09-09T02:41:27;6.63;;;4.10;;
68870;SDS011;55906;52.278;6.808;2022-09-09T02:43:57;6.65;;;3.97;;
68870;SDS011;55906;52.278;6.808;2022-09-09T02:46:32;6.10;;;3.70;;
68870;SDS011;55906;52.278;6.808;2022-09-09T02:49:09;5.80;;;4.50;;
68870;SDS011;55906;52.278;6.808;2022-09-09T02:51:39;5.93;;;4.25;;
68870;SDS011;55906;52.278;6.808;2022-09-09T02:54:17;5.32;;;4.05;;
68870;SDS011;55906;52.278;6.808;2022-09-09T02:56:49;5.97;;;3.70;;
68870;SDS011;55906;52.278;6.808;2022-09-09T02:59:19;5.90;;;4.27;;
68870;SDS011;55906;52.278;6.808;2022-09-09T03:01:47;5.93;;;3.92;;
68870;SDS011;55906;52.278;6.808;2022-09-09T03:04:14;7.47;;;4.07;;
68870;SDS011;55906;52.278;6.808;2022-09-09T03:06:40;4.50;;;3.28;;
68870;SDS011;55906;52.278;6.808;2022-09-09T03:09:07;5.18;;;3.90;;
68870;SDS011;55906;52.278;6.808;2022-09-09T03:11:35;6.07;;;3.73;;
68870;SDS011;55906;52.278;6.808;2022-09-09T03:14:03;5.75;;;3.67;;
68870;SDS011;55906;52.278;6.808;2022-09-09T03:16:30;5.65;;;3.50;;
68870;SDS011;55906;52.278;6.808;2022-09-09T03:18:59;4.97;;;3.85;;
68870;SDS011;55906;52.278;6.808;2022-09-09T03:21:26;6.28;;;3.92;;
68870;SDS011;55906;52.278;6.808;2022-09-09T03:23:53;4.43;;;3.33;;
68870;SDS011;55906;52.278;6.808;2022-09-09T03:26:19;5.63;;;4.25;;
68870;SDS011;55906;52.278;6.808;2022-09-09T03:28:46;5.28;;;4.00;;
68870;SDS011;55906;52.278;6.808;2022-09-09T03:31:12;5.25;;;3.53;;
68870;SDS011;55906;52.278;6.808;2022-09-09T03:33:39;7.82;;;4.22;;
68870;SDS011;55906;52.278;6.808;2022-09-09T03:36:08;6.37;;;3.50;;
68870;SDS011;55906;52.278;6.808;2022-09-09T03:38:35;8.95;;;4.88;;
68870;SDS011;55906;52.278;6.808;2022-09-09T03:41:02;6.60;;;4.18;;
68870;SDS011;55906;52.278;6.808;2022-09-09T03:43:31;8.55;;;4.30;;
68870;SDS011;55906;52.278;6.808;2022-09-09T03:45:57;8.57;;;4.85;;
68870;SDS011;55906;52.278;6.808;2022-09-09T03:48:24;4.70;;;3.77;;
68870;SDS011;55906;52.278;6.808;2022-09-09T03:50:53;5.60;;;4.00;;
68870;SDS011;55906;52.278;6.808;2022-09-09T03:53:22;6.63;;;4.00;;
68870;SDS011;55906;52.278;6.808;2022-09-09T03:55:51;5.28;;;3.95;;
68870;SDS011;55906;52.278;6.808;2022-09-09T03:58:20;5.47;;;3.65;;
68870;SDS011;55906;52.278;6.808;2022-09-09T04:00:52;6.10;;;4.70;;
68870;SDS011;55906;52.278;6.808;2022-09-09T04:03:20;6.57;;;4.18;;
68870;SDS011;55906;52.278;6.808;2022-09-09T04:05:48;6.03;;;4.28;;
68870;SDS011;55906;52.278;6.808;2022-09-09T04:08:15;7.88;;;4.28;;
68870;SDS011;55906;52.278;6.808;2022-09-09T04:10:43;5.40;;;4.40;;
68870;SDS011;55906;52.278;6.808;2022-09-09T04:13:10;6.60;;;4.90;;
68870;SDS011;55906;52.278;6.808;2022-09-09T04:15:42;6.03;;;4.78;;
68870;SDS011;55906;52.278;6.808;2022-09-09T04:18:09;5.47;;;4.20;;
68870;SDS011;55906;52.278;6.808;2022-09-09T04:20:36;6.38;;;4.15;;
68870;SDS011;55906;52.278;6.808;2022-09-09T04:23:03;6.88;;;4.32;;
68870;SDS011;55906;52.278;6.808;2022-09-09T04:25:32;6.90;;;5.07;;
68870;SDS011;55906;52.278;6.808;2022-09-09T04:28:00;6.65;;;4.93;;
68870;SDS011;55906;52.278;6.808;2022-09-09T04:30:27;6.53;;;4.20;;
68870;SDS011;55906;52.278;6.808;2022-09-09T04:32:54;5.63;;;4.22;;
68870;SDS011;55906;52.278;6.808;2022-09-09T04:35:20;6.75;;;4.95;;
68870;SDS011;55906;52.278;6.808;2022-09-09T04:37:48;6.53;;;4.73;;
68870;SDS011;55906;52.278;6.808;2022-09-09T04:40:14;9.73;;;5.07;;
68870;SDS011;55906;52.278;6.808;2022-09-09T04:42:41;7.63;;;5.45;;
68870;SDS011;55906;52.278;6.808;2022-09-09T04:45:10;8.18;;;5.30;;
68870;SDS011;55906;52.278;6.808;2022-09-09T04:47:38;8.20;;;5.80;;
68870;SDS011;55906;52.278;6.808;2022-09-09T04:50:06;7.20;;;5.07;;
68870;SDS011;55906;52.278;6.808;2022-09-09T04:52:34;8.95;;;5.20;;
68870;SDS011;55906;52.278;6.808;2022-09-09T04:55:02;5.78;;;4.22;;
68870;SDS011;55906;52.278;6.808;2022-09-09T04:57:29;11.38;;;5.35;;
68870;SDS011;55906;52.278;6.808;2022-09-09T04:59:57;8.75;;;5.43;;
68870;SDS011;55906;52.278;6.808;2022-09-09T05:02:26;8.20;;;5.53;;
68870;SDS011;55906;52.278;6.808;2022-09-09T05:04:52;7.00;;;4.72;;
68870;SDS011;55906;52.278;6.808;2022-09-09T05:07:23;7.95;;;4.65;;
68870;SDS011;55906;52.278;6.808;2022-09-09T05:09:51;7.32;;;5.40;;
68870;SDS011;55906;52.278;6.808;2022-09-09T05:12:18;7.78;;;4.85;;
68870;SDS011;55906;52.278;6.808;2022-09-09T05:14:45;8.20;;;5.00;;
68870;SDS011;55906;52.278;6.808;2022-09-09T05:17:11;9.20;;;4.93;;
68870;SDS011;55906;52.278;6.808;2022-09-09T05:19:39;7.93;;;5.22;;
68870;SDS011;55906;52.278;6.808;2022-09-09T05:22:06;9.27;;;5.43;;
68870;SDS011;55906;52.278;6.808;2022-09-09T05:24:32;8.88;;;5.70;;
68870;SDS011;55906;52.278;6.808;2022-09-09T05:26:59;8.33;;;4.80;;
68870;SDS011;55906;52.278;6.808;2022-09-09T05:29:27;7.63;;;4.95;;
68870;SDS011;55906;52.278;6.808;2022-09-09T05:31:53;8.32;;;5.60;;
68870;SDS011;55906;52.278;6.808;2022-09-09T05:34:20;11.05;;;5.57;;
68870;SDS011;55906;52.278;6.808;2022-09-09T05:36:48;8.02;;;5.15;;
68870;SDS011;55906;52.278;6.808;2022-09-09T05:39:16;7.03;;;4.93;;
68870;SDS011;55906;52.278;6.808;2022-09-09T05:41:42;8.02;;;5.40;;
68870;SDS011;55906;52.278;6.808;2022-09-09T05:44:09;7.40;;;5.20;;
68870;SDS011;55906;52.278;6.808;2022-09-09T05:46:35;7.30;;;5.35;;
68870;SDS011;55906;52.278;6.808;2022-09-09T05:49:02;9.05;;;5.80;;
68870;SDS011;55906;52.278;6.808;2022-09-09T05:51:30;10.33;;;5.40;;
68870;SDS011;55906;52.278;6.808;2022-09-09T05:53:58;7.85;;;5.05;;
68870;SDS011;55906;52.278;6.808;2022-09-09T05:56:25;7.57;;;5.00;;
68870;SDS011;55906;52.278;6.808;2022-09-09T05:58:53;7.78;;;5.20;;
68870;SDS011;55906;52.278;6.808;2022-09-09T06:01:21;8.57;;;5.55;;
68870;SDS011;55906;52.278;6.808;2022-09-09T06:03:50;10.60;;;6.53;;
68870;SDS011;55906;52.278;6.808;2022-09-09T06:06:18;8.68;;;5.35;;
68870;SDS011;55906;52.278;6.808;2022-09-09T06:08:47;7.38;;;5.07;;
68870;SDS011;55906;52.278;6.808;2022-09-09T06:11:17;7.90;;;4.72;;
68870;SDS011;55906;52.278;6.808;2022-09-09T06:13:45;10.77;;;5.88;;
68870;SDS011;55906;52.278;6.808;2022-09-09T06:16:13;7.43;;;4.40;;
68870;SDS011;55906;52.278;6.808;2022-09-09T06:18:42;9.23;;;5.00;;
68870;SDS011;55906;52.278;6.808;2022-09-09T06:21:11;7.43;;;4.95;;
68870;SDS011;55906;52.278;6.808;2022-09-09T06:23:41;7.85;;;5.15;;
68870;SDS011;55906;52.278;6.808;2022-09-09T06:26:10;7.85;;;4.95;;
68870;SDS011;55906;52.278;6.808;2022-09-09T06:28:39;9.43;;;4.70;;
68870;SDS011;55906;52.278;6.808;2022-09-09T06:31:08;7.43;;;4.57;;
68870;SDS011;55906;52.278;6.808;2022-09-09T06:33:37;7.45;;;4.80;;
68870;SDS011;55906;52.278;6.808;2022-09-09T06:36:06;7.15;;;4.45;;
68870;SDS011;55906;52.278;6.808;2022-09-09T06:38:36;8.05;;;4.60;;
68870;SDS011;55906;52.278;6.808;2022-09-09T06:41:02;8.10;;;4.70;;
68870;SDS011;55906;52.278;6.808;2022-09-09T06:43:30;7.03;;;5.05;;
68870;SDS011;55906;52.278;6.808;2022-09-09T06:45:59;10.48;;;5.25;;
68870;SDS011;55906;52.278;6.808;2022-09-09T06:48:27;8.23;;;3.90;;
68870;SDS011;55906;52.278;6.808;2022-09-09T06:51:01;7.88;;;3.92;;
68870;SDS011;55906;52.278;6.808;2022-09-09T06:53:29;7.30;;;4.27;;
68870;SDS011;55906;52.278;6.808;2022-09-09T06:55:58;9.75;;;4.32;;
68870;SDS011;55906;52.278;6.808;2022-09-09T06:58:26;9.80;;;4.35;;
68870;SDS011;55906;52.278;6.808;2022-09-09T07:00:53;6.85;;;3.50;;
68870;SDS011;55906;52.278;6.808;2022-09-09T07:03:28;8.50;;;4.13;;
68870;SDS011;55906;52.278;6.808;2022-09-09T07:05:55;10.03;;;4.20;;
68870;SDS011;55906;52.278;6.808;2022-09-09T07:08:22;9.43;;;4.70;;
68870;SDS011;55906;52.278;6.808;2022-09-09T07:10:49;9.07;;;4.43;;
68870;SDS011;55906;52.278;6.808;2022-09-09T07:13:18;8.70;;;4.38;;
68870;SDS011;55906;52.278;6.808;2022-09-09T07:15:46;8.85;;;4.00;;
68870;SDS011;55906;52.278;6.808;2022-09-09T07:18:12;7.20;;;4.00;;
68870;SDS011;55906;52.278;6.808;2022-09-09T07:20:40;11.20;;;4.22;;
68870;SDS011;55906;52.278;6.808;2022-09-09T07:23:07;8.18;;;4.13;;
68870;SDS011;55906;52.278;6.808;2022-09-09T07:25:34;9.95;;;3.83;;
68870;SDS011;55906;52.278;6.808;2022-09-09T07:28:01;7.72;;;3.85;;
68870;SDS011;55906;52.278;6.808;2022-09-09T07:30:28;10.13;;;4.20;;
68870;SDS011;55906;52.278;6.808;2022-09-09T07:32:55;7.72;;;4.03;;
68870;SDS011;55906;52.278;6.808;2022-09-09T07:35:22;11.95;;;4.03;;
68870;SDS011;55906;52.278;6.808;2022-09-09T07:37:50;11.23;;;3.50;;
68870;SDS011;55906;52.278;6.808;2022-09-09T07:40:16;11.25;;;4.10;;
68870;SDS011;55906;52.278;6.808;2022-09-09T07:42:46;7.73;;;3.30;;
68870;SDS011;55906;52.278;6.808;2022-09-09T07:45:13;11.88;;;3.38;;
68870;SDS011;55906;52.278;6.808;2022-09-09T07:47:40;7.25;;;3.20;;
68870;SDS011;55906;52.278;6.808;2022-09-09T07:50:07;11.02;;;4.13;;
68870;SDS011;55906;52.278;6.808;2022-09-09T07:52:35;9.75;;;4.70;;
68870;SDS011;55906;52.278;6.808;2022-09-09T07:55:03;10.93;;;3.50;;
68870;SDS011;55906;52.278;6.808;2022-09-09T07:57:31;7.88;;;3.60;;
68870;SDS011;55906;52.278;6.808;2022-09-09T07:59:57;7.68;;;3.20;;
68870;SDS011;55906;52.278;6.808;2022-09-09T08:02:24;7.30;;;3.22;;
68870;SDS011;55906;52.278;6.808;2022-09-09T08:04:54;6.72;;;3.08;;
68870;SDS011;55906;52.278;6.808;2022-09-09T08:07:21;12.40;;;4.20;;
68870;SDS011;55906;52.278;6.808;2022-09-09T08:09:48;8.18;;;3.30;;
68870;SDS011;55906;52.278;6.808;2022-09-09T08:12:18;11.40;;;3.90;;
68870;SDS011;55906;52.278;6.808;2022-09-09T08:14:44;7.65;;;4.43;;
68870;SDS011;55906;52.278;6.808;2022-09-09T08:17:11;12.57;;;3.95;;
68870;SDS011;55906;52.278;6.808;2022-09-09T08:19:37;7.07;;;3.33;;
68870;SDS011;55906;52.278;6.808;2022-09-09T08:22:04;7.30;;;3.30;;
68870;SDS011;55906;52.278;6.808;2022-09-09T08:24:31;9.07;;;3.22;;
68870;SDS011;55906;52.278;6.808;2022-09-09T08:26:57;9.05;;;3.67;;
68870;SDS011;55906;52.278;6.808;2022-09-09T08:29:25;8.23;;;3.15;;
68870;SDS011;55906;52.278;6.808;2022-09-09T08:31:53;10.63;;;3.43;;
68870;SDS011;55906;52.278;6.808;2022-09-09T08:34:22;9.80;;;3.63;;
68870;SDS011;55906;52.278;6.808;2022-09-09T08:36:52;8.50;;;3.25;;
68870;SDS011;55906;52.278;6.808;2022-09-09T08:39:20;8.93;;;3.30;;
68870;SDS011;55906;52.278;6.808;2022-09-09T08:41:54;9.35;;;3.60;;
68870;SDS011;55906;52.278;6.808;2022-09-09T08:44:41;9.60;;;3.33;;
68870;SDS011;55906;52.278;6.808;2022-09-09T08:47:19;9.18;;;3.13;;
68870;SDS011;55906;52.278;6.808;2022-09-09T08:49:58;12.10;;;2.63;;
68870;SDS011;55906;52.278;6.808;2022-09-09T08:52:36;5.97;;;2.88;;
68870;SDS011;55906;52.278;6.808;2022-09-09T08:55:11;6.50;;;2.75;;
68870;SDS011;55906;52.278;6.808;2022-09-09T08:57:46;11.43;;;3.43;;
68870;SDS011;55906;52.278;6.808;2022-09-09T09:00:17;7.65;;;3.00;;
68870;SDS011;55906;52.278;6.808;2022-09-09T09:02:46;10.63;;;2.90;;
68870;SDS011;55906;52.278;6.808;2022-09-09T09:05:23;8.73;;;3.30;;
68870;SDS011;55906;52.278;6.808;2022-09-09T09:08:01;6.40;;;2.67;;
68870;SDS011;55906;52.278;6.808;2022-09-09T09:10:37;5.67;;;2.70;;
68870;SDS011;55906;52.278;6.808;2022-09-09T09:13:13;8.32;;;2.97;;
68870;SDS011;55906;52.278;6.808;2022-09-09T09:15:43;10.23;;;2.80;;
68870;SDS011;55906;52.278;6.808;2022-09-09T09:18:12;10.65;;;2.70;;
68870;SDS011;55906;52.278;6.808;2022-09-09T09:20:42;8.98;;;3.03;;
68870;SDS011;55906;52.278;6.808;2022-09-09T09:23:21;10.02;;;2.85;;
68870;SDS011;55906;52.278;6.808;2022-09-09T09:25:49;8.30;;;2.58;;
68870;SDS011;55906;52.278;6.808;2022-09-09T09:28:18;9.38;;;2.70;;
68870;SDS011;55906;52.278;6.808;2022-09-09T09:30:52;6.32;;;2.25;;
68870;SDS011;55906;52.278;6.808;2022-09-09T09:33:24;7.30;;;2.00;;
68870;SDS011;55906;52.278;6.808;2022-09-09T09:35:55;6.93;;;2.08;;
68870;SDS011;55906;52.278;6.808;2022-09-09T09:38:25;8.93;;;2.20;;
68870;SDS011;55906;52.278;6.808;2022-09-09T09:40:54;6.70;;;2.17;;
68870;SDS011;55906;52.278;6.808;2022-09-09T09:43:24;8.07;;;2.00;;
68870;SDS011;55906;52.278;6.808;2022-09-09T09:45:54;7.53;;;2.47;;
68870;SDS011;55906;52.278;6.808;2022-09-09T09:48:23;6.63;;;2.15;;
68870;SDS011;55906;52.278;6.808;2022-09-09T09:50:50;9.10;;;2.28;;
68870;SDS011;55906;52.278;6.808;2022-09-09T09:53:21;6.57;;;2.10;;
68870;SDS011;55906;52.278;6.808;2022-09-09T09:55:52;7.45;;;2.10;;
68870;SDS011;55906;52.278;6.808;2022-09-09T09:58:23;7.70;;;2.13;;
68870;SDS011;55906;52.278;6.808;2022-09-09T10:00:52;9.35;;;2.70;;
68870;SDS011;55906;52.278;6.808;2022-09-09T10:03:25;8.35;;;2.35;;
68870;SDS011;55906;52.278;6.808;2022-09-09T10:05:53;6.88;;;2.67;;
68870;SDS011;55906;52.278;6.808;2022-09-09T10:08:21;9.35;;;2.47;;
68870;SDS011;55906;52.278;6.808;2022-09-09T10:10:51;6.80;;;1.90;;
68870;SDS011;55906;52.278;6.808;2022-09-09T10:13:29;9.05;;;2.40;;
68870;SDS011;55906;52.278;6.808;2022-09-09T10:16:17;8.48;;;2.47;;
68870;SDS011;55906;52.278;6.808;2022-09-09T10:18:57;7.47;;;2.10;;
68870;SDS011;55906;52.278;6.808;2022-09-09T10:21:36;6.15;;;1.90;;
68870;SDS011;55906;52.278;6.808;2022-09-09T10:24:33;7.75;;;2.13;;
68870;SDS011;55906;52.278;6.808;2022-09-09T10:27:11;7.47;;;1.92;;
68870;SDS011;55906;52.278;6.808;2022-09-09T10:29:52;6.28;;;2.25;;
68870;SDS011;55906;52.278;6.808;2022-09-09T10:32:33;7.05;;;2.13;;
68870;SDS011;55906;52.278;6.808;2022-09-09T10:35:08;7.90;;;2.55;;
68870;SDS011;55906;52.278;6.808;2022-09-09T10:38:03;6.35;;;2.35;;
68870;SDS011;55906;52.278;6.808;2022-09-09T10:40:40;7.35;;;2.53;;
68870;SDS011;55906;52.278;6.808;2022-09-09T10:43:13;6.85;;;2.88;;
68870;SDS011;55906;52.278;6.808;2022-09-09T10:45:51;6.13;;;2.38;;
68870;SDS011;55906;52.278;6.808;2022-09-09T10:48:34;8.32;;;2.25;;
68870;SDS011;55906;52.278;6.808;2022-09-09T10:51:17;5.57;;;2.60;;
68870;SDS011;55906;52.278;6.808;2022-09-09T10:54:00;7.57;;;2.65;;
68870;SDS011;55906;52.278;6.808;2022-09-09T10:56:42;9.40;;;2.08;;
68870;SDS011;55906;52.278;6.808;2022-09-09T10:59:19;6.22;;;2.33;;
68870;SDS011;55906;52.278;6.808;2022-09-09T11:01:50;4.53;;;2.17;;
68870;SDS011;55906;52.278;6.808;2022-09-09T11:04:22;9.10;;;2.00;;
68870;SDS011;55906;52.278;6.808;2022-09-09T11:06:52;4.78;;;2.17;;
68870;SDS011;55906;52.278;6.808;2022-09-09T11:09:21;7.78;;;2.47;;
68870;SDS011;55906;52.278;6.808;2022-09-09T11:11:51;8.77;;;2.63;;
68870;SDS011;55906;52.278;6.808;2022-09-09T11:14:22;6.90;;;2.33;;
68870;SDS011;55906;52.278;6.808;2022-09-09T11:16:59;4.22;;;1.80;;
68870;SDS011;55906;52.278;6.808;2022-09-09T11:19:30;9.43;;;2.13;;
68870;SDS011;55906;52.278;6.808;2022-09-09T11:22:01;5.03;;;2.10;;
68870;SDS011;55906;52.278;6.808;2022-09-09T11:24:32;6.38;;;2.00;;
68870;SDS011;55906;52.278;6.808;2022-09-09T11:27:06;6.55;;;1.92;;
68870;SDS011;55906;52.278;6.808;2022-09-09T11:29:52;7.63;;;2.05;;
68870;SDS011;55906;52.278;6.808;2022-09-09T11:32:42;6.68;;;2.30;;
68870;SDS011;55906;52.278;6.808;2022-09-09T11:35:32;7.93;;;2.35;;
68870;SDS011;55906;52.278;6.808;2022-09-09T11:38:12;6.68;;;2.47;;
68870;SDS011;55906;52.278;6.808;2022-09-09T11:40:44;8.43;;;2.30;;
68870;SDS011;55906;52.278;6.808;2022-09-09T11:43:13;6.38;;;2.60;;
68870;SDS011;55906;52.278;6.808;2022-09-09T11:45:50;4.88;;;2.08;;
68870;SDS011;55906;52.278;6.808;2022-09-09T11:48:26;7.20;;;2.05;;
68870;SDS011;55906;52.278;6.808;2022-09-09T11:50:59;7.80;;;2.30;;
68870;SDS011;55906;52.278;6.808;2022-09-09T11:53:30;5.25;;;1.80;;
68870;SDS011;55906;52.278;6.808;2022-09-09T11:56:01;8.45;;;2.38;;
68870;SDS011;55906;52.278;6.808;2022-09-09T11:58:33;6.40;;;2.00;;
68870;SDS011;55906;52.278;6.808;2022-09-09T12:04:09;6.55;;;1.98;;
68870;SDS011;55906;52.278;6.808;2022-09-09T12:06:58;8.93;;;2.40;;
68870;SDS011;55906;52.278;6.808;2022-09-09T12:09:29;11.20;;;2.13;;
68870;SDS011;55906;52.278;6.808;2022-09-09T12:17:51;8.82;;;1.88;;
68870;SDS011;55906;52.278;6.808;2022-09-09T12:20:20;8.90;;;2.47;;
68870;SDS011;55906;52.278;6.808;2022-09-09T12:22:59;5.80;;;2.20;;
68870;SDS011;55906;52.278;6.808;2022-09-09T12:25:35;6.35;;;2.10;;
68870;SDS011;55906;52.278;6.808;2022-09-09T12:28:14;5.32;;;1.95;;
68870;SDS011;55906;52.278;6.808;2022-09-09T12:30:46;7.57;;;2.22;;
68870;SDS011;55906;52.278;6.808;2022-09-09T12:33:20;6.35;;;2.30;;
68870;SDS011;55906;52.278;6.808;2022-09-09T12:35:50;5.88;;;2.25;;
68870;SDS011;55906;52.278;6.808;2022-09-09T12:38:22;5.00;;;2.05;;
68870;SDS011;55906;52.278;6.808;2022-09-09T12:40:58;7.57;;;2.15;;
68870;SDS011;55906;52.278;6.808;2022-09-09T12:43:26;5.07;;;2.33;;
68870;SDS011;55906;52.278;6.808;2022-09-09T12:45:54;5.63;;;1.90;;
68870;SDS011;55906;52.278;6.808;2022-09-09T12:48:25;7.70;;;2.08;;
68870;SDS011;55906;52.278;6.808;2022-09-09T12:50:57;9.93;;;2.50;;
68870;SDS011;55906;52.278;6.808;2022-09-09T12:53:27;6.20;;;1.95;;
68870;SDS011;55906;52.278;6.808;2022-09-09T12:55:58;5.97;;;2.40;;
68870;SDS011;55906;52.278;6.808;2022-09-09T12:58:27;6.45;;;2.22;;
68870;SDS011;55906;52.278;6.808;2022-09-09T13:01:00;10.57;;;1.90;;
68870;SDS011;55906;52.278;6.808;2022-09-09T13:03:30;6.13;;;2.15;;
68870;SDS011;55906;52.278;6.808;2022-09-09T13:05:57;4.53;;;2.33;;
68870;SDS011;55906;52.278;6.808;2022-09-09T13:08:37;6.45;;;2.50;;
68870;SDS011;55906;52.278;6.808;2022-09-09T13:11:07;7.25;;;2.47;;
68870;SDS011;55906;52.278;6.808;2022-09-09T13:13:39;4.90;;;1.95;;
68870;SDS011;55906;52.278;6.808;2022-09-09T13:16:20;4.60;;;1.90;;
68870;SDS011;55906;52.278;6.808;2022-09-09T13:18:49;3.90;;;1.75;;
68870;SDS011;55906;52.278;6.808;2022-09-09T13:21:16;3.22;;;1.60;;
68870;SDS011;55906;52.278;6.808;2022-09-09T13:23:47;4.15;;;2.00;;
68870;SDS011;55906;52.278;6.808;2022-09-09T13:26:21;5.07;;;2.08;;
68870;SDS011;55906;52.278;6.808;2022-09-09T13:28:49;5.37;;;2.20;;
68870;SDS011;55906;52.278;6.808;2022-09-09T13:31:21;4.97;;;2.13;;
68870;SDS011;55906;52.278;6.808;2022-09-09T13:33:49;5.47;;;2.38;;
68870;SDS011;55906;52.278;6.808;2022-09-09T13:36:26;7.22;;;2.40;;
68870;SDS011;55906;52.278;6.808;2022-09-09T13:38:57;5.78;;;2.63;;
68870;SDS011;55906;52.278;6.808;2022-09-09T13:41:26;6.23;;;3.00;;
68870;SDS011;55906;52.278;6.808;2022-09-09T13:43:57;5.28;;;2.30;;
68870;SDS011;55906;52.278;6.808;2022-09-09T13:46:25;6.30;;;2.50;;
68870;SDS011;55906;52.278;6.808;2022-09-09T13:48:57;4.40;;;2.22;;
68870;SDS011;55906;52.278;6.808;2022-09-09T13:51:28;5.60;;;2.33;;
68870;SDS011;55906;52.278;6.808;2022-09-09T13:54:00;4.70;;;2.40;;
68870;SDS011;55906;52.278;6.808;2022-09-09T13:56:27;7.13;;;2.70;;
68870;SDS011;55906;52.278;6.808;2022-09-09T13:58:54;5.80;;;2.53;;
68870;SDS011;55906;52.278;6.808;2022-09-09T14:01:20;4.85;;;2.10;;
68870;SDS011;55906;52.278;6.808;2022-09-09T14:03:47;6.07;;;2.33;;
68870;SDS011;55906;52.278;6.808;2022-09-09T14:06:14;4.13;;;1.90;;
68870;SDS011;55906;52.278;6.808;2022-09-09T14:08:41;5.10;;;2.30;;
68870;SDS011;55906;52.278;6.808;2022-09-09T14:11:09;4.93;;;2.22;;
68870;SDS011;55906;52.278;6.808;2022-09-09T14:13:38;5.13;;;2.22;;
68870;SDS011;55906;52.278;6.808;2022-09-09T14:16:05;5.35;;;2.15;;
68870;SDS011;55906;52.278;6.808;2022-09-09T14:18:32;4.57;;;1.90;;
68870;SDS011;55906;52.278;6.808;2022-09-09T14:20:59;4.82;;;2.30;;
68870;SDS011;55906;52.278;6.808;2022-09-09T14:23:27;4.70;;;2.08;;
68870;SDS011;55906;52.278;6.808;2022-09-09T14:25:54;6.05;;;2.17;;
68870;SDS011;55906;52.278;6.808;2022-09-09T14:28:23;5.88;;;2.20;;
68870;SDS011;55906;52.278;6.808;2022-09-09T14:30:50;4.63;;;2.13;;
68870;SDS011;55906;52.278;6.808;2022-09-09T14:33:17;4.63;;;2.42;;
68870;SDS011;55906;52.278;6.808;2022-09-09T14:35:43;6.05;;;2.42;;
68870;SDS011;55906;52.278;6.808;2022-09-09T14:38:10;5.55;;;2.38;;
68870;SDS011;55906;52.278;6.808;2022-09-09T14:40:37;4.38;;;2.22;;
68870;SDS011;55906;52.278;6.808;2022-09-09T14:43:04;5.00;;;2.30;;
68870;SDS011;55906;52.278;6.808;2022-09-09T14:45:33;4.65;;;2.30;;
68870;SDS011;55906;52.278;6.808;2022-09-09T14:48:02;6.80;;;2.60;;
68870;SDS011;55906;52.278;6.808;2022-09-09T14:50:29;6.25;;;2.80;;
68870;SDS011;55906;52.278;6.808;2022-09-09T14:52:56;4.88;;;2.40;;
68870;SDS011;55906;52.278;6.808;2022-09-09T14:55:23;5.57;;;2.63;;
68870;SDS011;55906;52.278;6.808;2022-09-09T14:57:49;6.15;;;2.95;;
68870;SDS011;55906;52.278;6.808;2022-09-09T15:00:16;5.07;;;2.90;;
68870;SDS011;55906;52.278;6.808;2022-09-09T15:02:44;5.85;;;2.50;;
68870;SDS011;55906;52.278;6.808;2022-09-09T15:05:10;6.05;;;2.40;;
68870;SDS011;55906;52.278;6.808;2022-09-09T15:07:37;7.70;;;3.07;;
68870;SDS011;55906;52.278;6.808;2022-09-09T15:10:04;6.78;;;2.72;;
68870;SDS011;55906;52.278;6.808;2022-09-09T15:12:31;7.53;;;3.55;;
68870;SDS011;55906;52.278;6.808;2022-09-09T15:15:00;4.75;;;2.70;;
68870;SDS011;55906;52.278;6.808;2022-09-09T15:17:27;7.20;;;2.90;;